createdAt,value
2017-04-27T00:00:13.431Z,52.74
2017-04-27T00:01:13.209Z,52.73
2017-04-27T00:02:12.960Z,52.68
2017-04-27T00:03:12.033Z,52.67
2017-04-27T00:04:12.814Z,52.62
2017-04-27T00:05:12.969Z,52.60
2017-04-27T00:06:12.787Z,52.55
2017-04-27T00:07:12.794Z,52.55
2017-04-27T00:08:13.442Z,52.52
2017-04-27T00:09:12.402Z,52.52
2017-04-27T00:10:12.632Z,52.55
2017-04-27T00:11:12.712Z,52.51
2017-04-27T00:12:13.012Z,52.48
2017-04-27T00:13:15.681Z,52.48
2017-04-27T00:14:12.842Z,52.46
2017-04-27T00:15:13.083Z,52.48
2017-04-27T00:16:12.829Z,52.44
2017-04-27T00:17:13.903Z,52.42
2017-04-27T00:18:12.982Z,52.46
2017-04-27T00:19:14.137Z,52.45
2017-04-27T00:20:13.286Z,52.44
2017-04-27T00:21:12.560Z,52.48
2017-04-27T00:22:13.377Z,52.47
2017-04-27T00:23:13.239Z,52.41
2017-04-27T00:24:13.198Z,52.47
2017-04-27T00:25:12.529Z,52.45
2017-04-27T00:26:13.217Z,52.44
2017-04-27T00:27:12.256Z,52.44
2017-04-27T00:28:12.423Z,52.43
2017-04-27T00:29:10.097Z,52.47
2017-04-27T00:30:12.695Z,52.46
2017-04-27T00:31:14.176Z,52.41
2017-04-27T00:32:12.266Z,52.43
2017-04-27T00:33:13.297Z,52.37
2017-04-27T00:34:12.290Z,51.58
2017-04-27T00:35:12.618Z,51.45
2017-04-27T00:36:12.682Z,51.42
2017-04-27T00:37:13.561Z,51.36
2017-04-27T00:38:12.582Z,51.33
2017-04-27T00:39:13.793Z,51.37
2017-04-27T00:40:13.197Z,52.10
2017-04-27T00:41:12.295Z,52.26
2017-04-27T00:42:12.811Z,52.37
2017-04-27T00:43:13.755Z,52.38
2017-04-27T00:44:13.296Z,52.39
2017-04-27T00:45:12.562Z,52.44
2017-04-27T00:46:13.449Z,52.42
2017-04-27T00:47:13.398Z,52.47
2017-04-27T00:48:12.548Z,52.46
2017-04-27T00:49:13.448Z,52.43
2017-04-27T00:50:14.066Z,52.44
2017-04-27T00:51:12.300Z,52.44
2017-04-27T00:52:11.402Z,52.32
2017-04-27T00:53:14.221Z,51.64
2017-04-27T00:54:12.262Z,51.56
2017-04-27T00:55:12.442Z,51.42
2017-04-27T00:56:14.696Z,52.11
2017-04-27T00:57:13.359Z,51.73
2017-04-27T00:58:13.981Z,52.25
2017-04-27T00:59:12.460Z,52.39
2017-04-27T01:00:12.990Z,52.40
2017-04-27T01:01:12.630Z,52.34
2017-04-27T01:02:12.954Z,51.60
2017-04-27T01:03:12.832Z,51.49
2017-04-27T01:04:13.858Z,51.76
2017-04-27T01:05:14.238Z,52.21
2017-04-27T01:06:11.182Z,52.29
2017-04-27T01:07:13.182Z,51.58
2017-04-27T01:08:12.293Z,51.46
2017-04-27T01:09:14.757Z,51.40
2017-04-27T01:10:14.462Z,51.36
2017-04-27T01:11:12.980Z,51.34
2017-04-27T01:12:12.242Z,51.32
2017-04-27T01:13:14.804Z,51.36
2017-04-27T01:14:14.370Z,51.33
2017-04-27T01:15:12.434Z,51.33
2017-04-27T01:16:13.168Z,51.54
2017-04-27T01:17:13.920Z,52.14
2017-04-27T01:18:13.561Z,52.31
2017-04-27T01:19:13.829Z,52.38
2017-04-27T01:20:13.462Z,52.39
2017-04-27T01:21:12.528Z,52.46
2017-04-27T01:22:12.466Z,52.51
2017-04-27T01:23:12.611Z,52.46
2017-04-27T01:24:14.037Z,52.49
2017-04-27T01:25:14.521Z,52.48
2017-04-27T01:26:13.241Z,52.49
2017-04-27T01:27:13.096Z,52.49
2017-04-27T01:28:12.177Z,52.51
2017-04-27T01:29:12.773Z,52.54
2017-04-27T01:30:15.228Z,52.54
2017-04-27T01:31:12.749Z,52.55
2017-04-27T01:32:13.765Z,52.57
2017-04-27T01:33:13.802Z,52.55
2017-04-27T01:34:13.323Z,52.57
2017-04-27T01:35:13.111Z,52.61
2017-04-27T01:36:15.517Z,52.59
2017-04-27T01:37:10.662Z,52.55
2017-04-27T01:38:14.250Z,52.60
2017-04-27T01:39:12.816Z,52.58
2017-04-27T01:40:13.706Z,52.60
2017-04-27T01:41:14.316Z,52.55
2017-04-27T01:42:11.379Z,52.59
2017-04-27T01:43:12.976Z,52.57
2017-04-27T01:44:11.991Z,52.60
2017-04-27T01:45:12.808Z,52.60
2017-04-27T01:46:13.758Z,52.55
2017-04-27T01:47:10.999Z,52.58
2017-04-27T01:48:13.501Z,52.60
2017-04-27T01:49:11.425Z,52.58
2017-04-27T01:50:13.278Z,51.78
2017-04-27T01:51:13.795Z,51.61
2017-04-27T01:52:14.395Z,51.50
2017-04-27T01:53:15.025Z,51.49
2017-04-27T01:54:12.928Z,51.46
2017-04-27T01:55:13.657Z,51.48
2017-04-27T01:56:11.874Z,52.26
2017-04-27T01:57:10.297Z,51.66
2017-04-27T01:58:12.907Z,51.54
2017-04-27T01:59:13.102Z,51.43
2017-04-27T02:00:12.357Z,51.42
2017-04-27T02:01:12.954Z,51.47
2017-04-27T02:02:12.233Z,51.43
2017-04-27T02:03:11.368Z,51.53
2017-04-27T02:04:11.546Z,52.20
2017-04-27T02:05:14.249Z,52.45
2017-04-27T02:06:13.428Z,52.43
2017-04-27T02:07:13.097Z,52.51
2017-04-27T02:08:12.951Z,52.56
2017-04-27T02:09:12.832Z,52.55
2017-04-27T02:10:13.420Z,52.59
2017-04-27T02:11:12.656Z,52.60
2017-04-27T02:12:11.679Z,52.48
2017-04-27T02:13:13.780Z,52.64
2017-04-27T02:14:12.806Z,52.59
2017-04-27T02:15:13.450Z,52.64
2017-04-27T02:16:13.919Z,52.73
2017-04-27T02:17:13.618Z,52.63
2017-04-27T02:18:12.882Z,52.69
2017-04-27T02:19:10.250Z,52.75
2017-04-27T02:20:12.769Z,52.71
2017-04-27T02:21:11.658Z,52.52
2017-04-27T02:22:13.070Z,52.91
2017-04-27T02:23:11.049Z,52.84
2017-04-27T02:24:15.028Z,52.46
2017-04-27T02:25:12.670Z,52.81
2017-04-27T02:26:13.511Z,52.86
2017-04-27T02:27:13.842Z,52.92
2017-04-27T02:28:13.241Z,52.96
2017-04-27T02:29:12.335Z,52.95
2017-04-27T02:30:12.440Z,53.06
2017-04-27T02:31:13.307Z,52.99
2017-04-27T02:32:12.420Z,53.11
2017-04-27T02:33:12.988Z,53.05
2017-04-27T02:34:13.704Z,52.97
2017-04-27T02:35:13.342Z,53.04
2017-04-27T02:36:14.018Z,53.01
2017-04-27T02:37:12.611Z,53.03
2017-04-27T02:38:13.031Z,53.07
2017-04-27T02:39:12.138Z,53.07
2017-04-27T02:40:12.531Z,53.05
2017-04-27T02:41:11.638Z,53.11
2017-04-27T02:42:12.969Z,53.13
2017-04-27T02:43:12.708Z,53.11
2017-04-27T02:44:13.223Z,53.19
2017-04-27T02:45:13.337Z,53.15
2017-04-27T02:46:13.856Z,53.18
2017-04-27T02:47:13.815Z,53.13
2017-04-27T02:48:12.748Z,53.16
2017-04-27T02:49:12.880Z,53.20
2017-04-27T02:50:13.157Z,53.08
2017-04-27T02:51:12.245Z,53.09
2017-04-27T02:52:13.270Z,53.13
2017-04-27T02:53:12.344Z,53.15
2017-04-27T02:54:12.989Z,53.11
2017-04-27T02:55:12.085Z,53.11
2017-04-27T02:56:11.995Z,53.12
2017-04-27T02:57:12.795Z,53.13
2017-04-27T02:58:13.386Z,53.13
2017-04-27T02:59:14.172Z,53.10
2017-04-27T03:00:13.157Z,53.11
2017-04-27T03:01:13.185Z,53.13
2017-04-27T03:02:12.152Z,53.15
2017-04-27T03:03:09.346Z,53.17
2017-04-27T03:04:14.046Z,53.13
2017-04-27T03:05:11.985Z,53.13
2017-04-27T03:06:10.971Z,53.14
2017-04-27T03:07:12.304Z,53.13
2017-04-27T03:08:12.798Z,53.13
2017-04-27T03:09:13.161Z,53.23
2017-04-27T03:10:12.627Z,53.24
2017-04-27T03:11:12.970Z,53.24
2017-04-27T03:12:12.239Z,53.22
2017-04-27T03:13:13.498Z,53.24
2017-04-27T03:14:12.538Z,53.25
2017-04-27T03:16:12.994Z,53.24
2017-04-27T03:16:15.848Z,53.19
2017-04-27T03:17:13.474Z,53.08
2017-04-27T03:18:12.631Z,52.39
2017-04-27T03:19:14.146Z,52.24
2017-04-27T03:20:14.831Z,52.08
2017-04-27T03:21:13.022Z,52.02
2017-04-27T03:22:12.212Z,52.88
2017-04-27T03:23:12.366Z,53.01
2017-04-27T03:24:14.046Z,53.08
2017-04-27T03:25:12.968Z,53.09
2017-04-27T03:26:12.118Z,53.07
2017-04-27T03:27:11.264Z,53.06
2017-04-27T03:28:11.165Z,53.05
2017-04-27T03:29:14.182Z,53.03
2017-04-27T03:30:12.244Z,53.00
2017-04-27T03:31:12.927Z,53.05
2017-04-27T03:32:12.974Z,53.02
2017-04-27T03:33:12.614Z,53.02
2017-04-27T03:34:13.279Z,53.02
2017-04-27T03:35:15.110Z,53.06
2017-04-27T03:36:12.311Z,53.07
2017-04-27T03:37:12.366Z,53.09
2017-04-27T03:38:13.802Z,53.06
2017-04-27T03:39:12.974Z,53.08
2017-04-27T03:40:12.846Z,53.08
2017-04-27T03:41:13.895Z,53.09
2017-04-27T03:42:13.165Z,53.08
2017-04-27T03:43:12.973Z,53.11
2017-04-27T03:44:12.241Z,53.11
2017-04-27T03:45:12.451Z,53.16
2017-04-27T03:46:12.675Z,53.16
2017-04-27T03:47:11.625Z,53.15
2017-04-27T03:48:13.253Z,52.32
2017-04-27T03:49:13.042Z,52.16
2017-04-27T03:50:12.105Z,52.09
2017-04-27T03:51:13.961Z,52.83
2017-04-27T03:52:12.734Z,52.98
2017-04-27T03:53:13.266Z,53.07
2017-04-27T03:54:15.822Z,53.18
2017-04-27T03:55:13.102Z,53.62
2017-04-27T03:56:12.199Z,53.59
2017-04-27T03:57:13.098Z,53.44
2017-04-27T03:58:12.849Z,53.08
2017-04-27T03:59:13.880Z,53.38
2017-04-27T04:00:13.850Z,53.67
2017-04-27T04:01:13.068Z,53.59
2017-04-27T04:02:12.793Z,53.52
2017-04-27T04:03:13.534Z,53.53
2017-04-27T04:04:12.615Z,53.62
2017-04-27T04:05:13.682Z,53.63
2017-04-27T04:06:12.952Z,53.64
2017-04-27T04:07:13.673Z,53.75
2017-04-27T04:08:12.846Z,53.63
2017-04-27T04:09:15.504Z,53.63
2017-04-27T04:10:14.674Z,53.65
2017-04-27T04:11:12.793Z,53.59
2017-04-27T04:12:13.074Z,53.61
2017-04-27T04:13:12.138Z,53.64
2017-04-27T04:14:13.878Z,53.87
2017-04-27T04:15:13.803Z,53.80
2017-04-27T04:16:12.991Z,53.76
2017-04-27T04:17:12.203Z,53.69
2017-04-27T04:18:12.435Z,53.65
2017-04-27T04:19:12.409Z,53.53
2017-04-27T04:20:13.828Z,53.43
2017-04-27T04:21:11.083Z,53.42
2017-04-27T04:22:12.522Z,52.51
2017-04-27T04:23:13.201Z,52.34
2017-04-27T04:24:10.907Z,52.26
2017-04-27T04:25:17.924Z,52.42
2017-04-27T04:26:12.806Z,52.95
2017-04-27T04:27:13.011Z,53.09
2017-04-27T04:28:13.792Z,53.14
2017-04-27T04:29:12.797Z,53.18
2017-04-27T04:30:13.628Z,53.20
2017-04-27T04:31:13.197Z,53.18
2017-04-27T04:32:13.199Z,53.21
2017-04-27T04:33:13.185Z,53.15
2017-04-27T04:34:13.942Z,53.21
2017-04-27T04:35:13.203Z,53.22
2017-04-27T04:36:12.742Z,53.22
2017-04-27T04:37:13.371Z,53.18
2017-04-27T04:38:12.441Z,53.21
2017-04-27T04:39:12.950Z,53.18
2017-04-27T04:40:12.986Z,53.19
2017-04-27T04:41:13.786Z,53.22
2017-04-27T04:42:14.932Z,53.26
2017-04-27T04:43:12.758Z,53.18
2017-04-27T04:44:14.475Z,53.19
2017-04-27T04:45:11.336Z,53.18
2017-04-27T04:46:12.425Z,53.18
2017-04-27T04:47:11.151Z,53.21
2017-04-27T04:48:15.043Z,53.21
2017-04-27T04:49:10.232Z,53.22
2017-04-27T04:50:12.464Z,52.40
2017-04-27T04:51:13.960Z,52.45
2017-04-27T04:52:11.081Z,53.00
2017-04-27T04:53:15.258Z,53.07
2017-04-27T04:54:12.916Z,53.11
2017-04-27T04:55:15.551Z,53.15
2017-04-27T04:56:12.585Z,53.13
2017-04-27T04:57:14.403Z,53.14
2017-04-27T04:58:12.603Z,53.16
2017-04-27T04:59:13.575Z,53.17
2017-04-27T05:00:14.457Z,53.18
2017-04-27T05:01:13.943Z,53.17
2017-04-27T05:02:12.669Z,53.23
2017-04-27T05:03:12.813Z,53.18
2017-04-27T05:04:13.022Z,53.24
2017-04-27T05:05:12.017Z,53.22
2017-04-27T05:06:12.804Z,53.21
2017-04-27T05:07:13.592Z,53.20
2017-04-27T05:08:12.617Z,53.20
2017-04-27T05:09:13.230Z,53.18
2017-04-27T05:10:12.975Z,53.16
2017-04-27T05:11:12.967Z,53.19
2017-04-27T05:12:12.982Z,53.17
2017-04-27T05:13:12.216Z,53.19
2017-04-27T05:14:13.223Z,53.18
2017-04-27T05:15:12.975Z,53.16
2017-04-27T05:16:12.036Z,53.18
2017-04-27T05:17:12.827Z,53.19
2017-04-27T05:18:13.825Z,53.16
2017-04-27T05:19:15.830Z,53.23
2017-04-27T05:20:13.618Z,53.17
2017-04-27T05:21:13.280Z,53.20
2017-04-27T05:22:12.970Z,53.14
2017-04-27T05:23:12.036Z,53.18
2017-04-27T05:24:13.808Z,53.24
2017-04-27T05:25:13.831Z,53.13
2017-04-27T05:26:13.478Z,53.18
2017-04-27T05:27:14.196Z,53.22
2017-04-27T05:28:12.194Z,53.17
2017-04-27T05:29:11.739Z,53.05
2017-04-27T05:30:13.202Z,52.34
2017-04-27T05:31:12.795Z,52.18
2017-04-27T05:32:12.974Z,52.15
2017-04-27T05:33:13.151Z,52.37
2017-04-27T05:34:12.799Z,52.89
2017-04-27T05:35:13.393Z,53.05
2017-04-27T05:36:12.994Z,53.09
2017-04-27T05:37:13.779Z,53.13
2017-04-27T05:38:13.163Z,53.14
2017-04-27T05:39:14.054Z,53.20
2017-04-27T05:40:12.674Z,53.20
2017-04-27T05:41:13.605Z,53.26
2017-04-27T05:42:13.334Z,53.15
2017-04-27T05:43:12.513Z,53.29
2017-04-27T05:44:11.443Z,53.35
2017-04-27T05:45:11.475Z,52.68
2017-04-27T05:46:15.112Z,53.00
2017-04-27T05:47:13.947Z,53.79
2017-04-27T05:48:12.504Z,53.96
2017-04-27T05:49:12.507Z,53.87
2017-04-27T05:50:13.157Z,53.75
2017-04-27T05:51:12.984Z,53.81
2017-04-27T05:52:13.813Z,53.76
2017-04-27T05:53:13.060Z,53.69
2017-04-27T05:54:11.199Z,53.83
2017-04-27T05:55:13.925Z,53.82
2017-04-27T05:56:13.014Z,53.99
2017-04-27T05:57:14.691Z,54.05
2017-04-27T05:58:13.367Z,53.89
2017-04-27T05:59:13.429Z,53.83
2017-04-27T06:00:14.329Z,53.71
2017-04-27T06:01:14.165Z,53.63
2017-04-27T06:02:12.605Z,53.59
2017-04-27T06:03:12.766Z,53.60
2017-04-27T06:04:14.575Z,53.54
2017-04-27T06:05:11.529Z,53.50
2017-04-27T06:06:12.634Z,53.49
2017-04-27T06:07:12.796Z,53.48
2017-04-27T06:08:13.450Z,53.46
2017-04-27T06:09:12.962Z,53.47
2017-04-27T06:10:12.164Z,53.41
2017-04-27T06:11:12.654Z,53.40
2017-04-27T06:12:13.626Z,53.39
2017-04-27T06:13:12.594Z,53.43
2017-04-27T06:14:12.612Z,53.41
2017-04-27T06:15:11.502Z,53.27
2017-04-27T06:16:13.718Z,52.52
2017-04-27T06:17:11.413Z,52.42
2017-04-27T06:18:14.295Z,52.35
2017-04-27T06:19:11.391Z,52.46
2017-04-27T06:20:13.114Z,53.24
2017-04-27T06:21:09.468Z,53.51
2017-04-27T06:22:13.452Z,53.52
2017-04-27T06:23:14.115Z,53.60
2017-04-27T06:24:14.928Z,53.65
2017-04-27T06:25:15.094Z,53.49
2017-04-27T06:26:12.979Z,53.51
2017-04-27T06:27:12.447Z,53.52
2017-04-27T06:28:13.049Z,53.31
2017-04-27T06:29:12.886Z,52.62
2017-04-27T06:30:13.849Z,53.29
2017-04-27T06:31:14.101Z,53.38
2017-04-27T06:32:12.205Z,53.40
2017-04-27T06:33:10.384Z,53.36
2017-04-27T06:34:12.460Z,53.45
2017-04-27T06:35:13.346Z,53.47
2017-04-27T06:36:14.516Z,53.46
2017-04-27T06:37:12.778Z,53.42
2017-04-27T06:38:13.938Z,53.36
2017-04-27T06:39:13.837Z,53.41
2017-04-27T06:40:13.816Z,53.37
2017-04-27T06:41:13.087Z,53.53
2017-04-27T06:42:13.042Z,53.72
2017-04-27T06:43:12.262Z,53.74
2017-04-27T06:44:12.256Z,54.03
2017-04-27T06:45:12.438Z,53.85
2017-04-27T06:46:13.105Z,53.88
2017-04-27T06:47:12.312Z,53.77
2017-04-27T06:48:13.078Z,53.84
2017-04-27T06:49:11.436Z,53.85
2017-04-27T06:50:12.547Z,53.40
2017-04-27T06:51:11.704Z,53.40
2017-04-27T06:52:13.718Z,53.77
2017-04-27T06:53:12.839Z,54.54
2017-04-27T06:54:13.050Z,55.28
2017-04-27T06:55:12.193Z,55.00
2017-04-27T06:56:12.238Z,54.91
2017-04-27T06:57:12.416Z,54.91
2017-04-27T06:58:14.034Z,54.87
2017-04-27T06:59:12.249Z,54.88
2017-04-27T07:00:12.970Z,54.83
2017-04-27T07:01:12.810Z,54.79
2017-04-27T07:02:12.818Z,54.72
2017-04-27T07:03:13.778Z,54.85
2017-04-27T07:04:13.730Z,54.83
2017-04-27T07:05:12.794Z,54.85
2017-04-27T07:06:12.639Z,54.68
2017-04-27T07:07:13.845Z,54.67
2017-04-27T07:08:13.410Z,54.68
2017-04-27T07:09:12.714Z,54.57
2017-04-27T07:10:14.300Z,54.57
2017-04-27T07:11:13.078Z,54.56
2017-04-27T07:12:11.229Z,54.55
2017-04-27T07:13:12.565Z,54.59
2017-04-27T07:14:12.568Z,54.57
2017-04-27T07:15:14.365Z,54.52
2017-04-27T07:16:12.408Z,54.52
2017-04-27T07:17:10.865Z,54.64
2017-04-27T07:18:12.265Z,54.42
2017-04-27T07:19:18.022Z,54.46
2017-04-27T07:20:12.593Z,54.38
2017-04-27T07:21:13.168Z,54.42
2017-04-27T07:22:14.119Z,54.37
2017-04-27T07:23:12.806Z,54.36
2017-04-27T07:24:14.378Z,54.28
2017-04-27T07:25:12.452Z,54.36
2017-04-27T07:26:13.170Z,54.27
2017-04-27T07:27:12.124Z,54.23
2017-04-27T07:28:12.233Z,54.30
2017-04-27T07:29:13.138Z,54.15
2017-04-27T07:30:12.391Z,54.08
2017-04-27T07:31:11.553Z,54.05
2017-04-27T07:32:10.927Z,54.00
2017-04-27T07:33:12.037Z,53.12
2017-04-27T07:34:13.845Z,52.89
2017-04-27T07:35:13.059Z,52.89
2017-04-27T07:36:12.682Z,48.55
2017-04-27T07:37:12.830Z,42.85
2017-04-27T07:38:12.987Z,39.88
2017-04-27T07:39:12.684Z,40.07
2017-04-27T07:40:13.651Z,39.57
2017-04-27T07:41:12.707Z,39.38
2017-04-27T07:42:12.859Z,39.68
2017-04-27T07:43:14.109Z,39.77
2017-04-27T07:44:12.818Z,40.05
2017-04-27T07:45:13.630Z,39.84
2017-04-27T07:46:12.939Z,40.13
2017-04-27T07:47:11.933Z,40.40
2017-04-27T07:48:12.677Z,40.48
2017-04-27T07:49:13.436Z,40.39
2017-04-27T07:50:12.861Z,40.38
2017-04-27T07:51:13.697Z,40.52
2017-04-27T07:52:14.478Z,41.36
2017-04-27T07:53:12.980Z,41.49
2017-04-27T07:54:12.625Z,42.14
2017-04-27T07:55:13.814Z,42.69
2017-04-27T07:56:14.434Z,42.35
2017-04-27T07:57:13.353Z,42.57
2017-04-27T07:58:12.477Z,42.88
2017-04-27T07:59:12.461Z,42.85
2017-04-27T08:00:12.527Z,42.78
2017-04-27T08:01:13.173Z,42.55
2017-04-27T08:02:12.902Z,43.39
2017-04-27T08:03:13.047Z,42.86
2017-04-27T08:04:12.177Z,43.40
2017-04-27T08:05:13.278Z,43.04
2017-04-27T08:06:13.904Z,42.48
2017-04-27T08:07:13.527Z,42.98
2017-04-27T08:08:13.537Z,43.42
2017-04-27T08:09:13.098Z,43.62
2017-04-27T08:10:12.651Z,43.59
2017-04-27T08:11:12.576Z,43.84
2017-04-27T08:12:13.079Z,43.82
2017-04-27T08:13:12.235Z,43.69
2017-04-27T08:14:12.848Z,43.87
2017-04-27T08:15:13.416Z,43.92
2017-04-27T08:16:12.634Z,44.07
2017-04-27T08:17:14.592Z,44.21
2017-04-27T08:18:14.400Z,44.17
2017-04-27T08:19:15.729Z,44.60
2017-04-27T08:20:13.370Z,44.81
2017-04-27T08:21:10.700Z,44.89
2017-04-27T08:22:12.678Z,44.87
2017-04-27T08:23:12.853Z,44.98
2017-04-27T08:24:13.106Z,45.18
2017-04-27T08:25:12.293Z,45.26
2017-04-27T08:26:10.703Z,45.29
2017-04-27T08:27:13.769Z,44.63
2017-04-27T08:28:12.986Z,44.61
2017-04-27T08:29:11.194Z,45.15
2017-04-27T08:30:12.671Z,44.75
2017-04-27T08:31:14.421Z,44.60
2017-04-27T08:32:12.477Z,44.60
2017-04-27T08:33:15.219Z,44.86
2017-04-27T08:34:12.394Z,44.77
2017-04-27T08:35:16.310Z,45.63
2017-04-27T08:36:12.880Z,45.75
2017-04-27T08:37:13.650Z,46.47
2017-04-27T08:38:14.414Z,46.87
2017-04-27T08:39:13.075Z,46.41
2017-04-27T08:40:12.059Z,46.38
2017-04-27T08:41:12.254Z,46.56
2017-04-27T08:42:14.057Z,46.54
2017-04-27T08:43:13.862Z,46.78
2017-04-27T08:44:13.046Z,46.92
2017-04-27T08:45:12.987Z,46.85
2017-04-27T08:46:11.894Z,46.76
2017-04-27T08:47:13.846Z,47.30
2017-04-27T08:48:13.027Z,47.20
2017-04-27T08:49:12.112Z,47.33
2017-04-27T08:50:12.255Z,47.03
2017-04-27T08:51:14.106Z,47.09
2017-04-27T08:52:11.998Z,47.29
2017-04-27T08:53:14.926Z,47.28
2017-04-27T08:54:12.090Z,47.22
2017-04-27T08:55:13.088Z,47.37
2017-04-27T08:56:12.915Z,47.17
2017-04-27T08:57:13.647Z,47.29
2017-04-27T08:58:12.796Z,47.40
2017-04-27T08:59:13.292Z,47.65
2017-04-27T09:00:12.438Z,47.87
2017-04-27T09:01:14.471Z,47.94
2017-04-27T09:02:14.289Z,47.96
2017-04-27T09:03:13.892Z,48.18
2017-04-27T09:04:12.970Z,48.11
2017-04-27T09:05:12.232Z,48.04
2017-04-27T09:06:12.987Z,48.09
2017-04-27T09:07:12.044Z,48.35
2017-04-27T09:08:12.615Z,48.55
2017-04-27T09:09:14.396Z,48.42
2017-04-27T09:10:12.440Z,48.33
2017-04-27T09:11:12.695Z,48.26
2017-04-27T09:12:13.294Z,48.72
2017-04-27T09:13:12.301Z,48.35
2017-04-27T09:14:12.441Z,48.45
2017-04-27T09:15:12.669Z,48.68
2017-04-27T09:16:13.025Z,48.55
2017-04-27T09:17:12.435Z,48.67
2017-04-27T09:18:15.031Z,48.71
2017-04-27T09:19:12.067Z,48.64
2017-04-27T09:20:13.560Z,48.90
2017-04-27T09:21:13.249Z,48.69
2017-04-27T09:22:12.838Z,48.81
2017-04-27T09:23:12.913Z,48.93
2017-04-27T09:24:13.493Z,48.85
2017-04-27T09:25:12.560Z,48.78
2017-04-27T09:26:13.378Z,48.82
2017-04-27T09:27:14.240Z,48.93
2017-04-27T09:28:12.981Z,48.96
2017-04-27T09:29:12.033Z,48.87
2017-04-27T09:30:12.239Z,48.78
2017-04-27T09:31:12.469Z,48.91
2017-04-27T09:32:12.780Z,48.88
2017-04-27T09:33:13.708Z,48.91
2017-04-27T09:34:12.835Z,48.94
2017-04-27T09:35:12.929Z,48.59
2017-04-27T09:36:13.185Z,48.11
2017-04-27T09:37:13.026Z,48.07
2017-04-27T09:38:11.295Z,48.27
2017-04-27T09:39:13.082Z,48.05
2017-04-27T09:40:13.056Z,48.11
2017-04-27T09:41:12.654Z,47.78
2017-04-27T09:42:13.565Z,47.73
2017-04-27T09:43:13.336Z,47.74
2017-04-27T09:44:12.468Z,47.61
2017-04-27T09:45:12.499Z,47.66
2017-04-27T09:46:13.251Z,47.73
2017-04-27T09:47:12.822Z,47.77
2017-04-27T09:48:13.394Z,47.87
2017-04-27T09:49:13.053Z,47.64
2017-04-27T09:50:14.694Z,47.87
2017-04-27T09:51:13.293Z,48.06
2017-04-27T09:52:12.444Z,48.50
2017-04-27T09:53:12.975Z,48.51
2017-04-27T09:54:12.258Z,48.36
2017-04-27T09:55:12.149Z,48.23
2017-04-27T09:56:14.072Z,48.37
2017-04-27T09:57:12.634Z,48.94
2017-04-27T09:58:12.826Z,48.90
2017-04-27T09:59:12.963Z,49.12
2017-04-27T10:00:12.184Z,49.10
2017-04-27T10:01:12.744Z,49.00
2017-04-27T10:02:12.992Z,49.09
2017-04-27T10:03:14.377Z,49.04
2017-04-27T10:04:15.054Z,49.15
2017-04-27T10:05:14.468Z,49.03
2017-04-27T10:06:12.513Z,48.91
2017-04-27T10:07:11.808Z,48.78
2017-04-27T10:08:13.851Z,48.14
2017-04-27T10:09:13.045Z,47.92
2017-04-27T10:10:12.959Z,47.79
2017-04-27T10:11:12.820Z,48.35
2017-04-27T10:12:12.999Z,48.46
2017-04-27T10:13:12.815Z,48.78
2017-04-27T10:14:13.495Z,48.95
2017-04-27T10:15:13.283Z,48.49
2017-04-27T10:16:13.299Z,48.16
2017-04-27T10:17:12.537Z,48.11
2017-04-27T10:18:14.327Z,48.79
2017-04-27T10:19:12.482Z,49.05
2017-04-27T10:20:16.326Z,49.15
2017-04-27T10:21:12.726Z,49.17
2017-04-27T10:22:12.993Z,49.03
2017-04-27T10:23:12.149Z,49.15
2017-04-27T10:24:12.273Z,49.08
2017-04-27T10:25:13.305Z,49.25
2017-04-27T10:26:15.807Z,49.20
2017-04-27T10:27:13.414Z,49.46
2017-04-27T10:28:12.459Z,49.38
2017-04-27T10:29:12.597Z,49.17
2017-04-27T10:30:13.204Z,49.39
2017-04-27T10:31:12.336Z,49.48
2017-04-27T10:32:12.977Z,49.39
2017-04-27T10:33:12.628Z,49.50
2017-04-27T10:34:13.933Z,49.37
2017-04-27T10:35:12.629Z,49.41
2017-04-27T10:36:13.496Z,49.95
2017-04-27T10:37:13.489Z,49.61
2017-04-27T10:38:13.156Z,49.70
2017-04-27T10:39:13.909Z,49.38
2017-04-27T10:40:12.968Z,49.44
2017-04-27T10:41:12.206Z,49.43
2017-04-27T10:42:11.289Z,49.39
2017-04-27T10:43:13.256Z,49.48
2017-04-27T10:44:13.228Z,49.39
2017-04-27T10:45:13.549Z,49.39
2017-04-27T10:46:12.500Z,49.45
2017-04-27T10:47:13.015Z,49.38
2017-04-27T10:48:14.238Z,49.44
2017-04-27T10:49:12.922Z,49.43
2017-04-27T10:50:14.094Z,49.42
2017-04-27T10:51:12.825Z,49.59
2017-04-27T10:52:13.714Z,49.49
2017-04-27T10:53:13.621Z,49.46
2017-04-27T10:54:12.795Z,49.50
2017-04-27T10:55:13.005Z,49.55
2017-04-27T10:56:13.007Z,49.59
2017-04-27T10:57:12.602Z,49.57
2017-04-27T10:58:13.681Z,49.86
2017-04-27T10:59:13.340Z,49.73
2017-04-27T11:00:09.892Z,49.75
2017-04-27T11:01:13.825Z,49.76
2017-04-27T11:02:13.604Z,49.89
2017-04-27T11:03:12.756Z,49.82
2017-04-27T11:04:13.665Z,49.87
2017-04-27T11:05:14.204Z,49.78
2017-04-27T11:06:12.597Z,49.38
2017-04-27T11:07:12.780Z,49.14
2017-04-27T11:08:13.410Z,49.18
2017-04-27T11:09:12.572Z,49.61
2017-04-27T11:10:13.344Z,49.69
2017-04-27T11:11:12.458Z,49.77
2017-04-27T11:12:11.537Z,49.68
2017-04-27T11:13:12.962Z,49.67
2017-04-27T11:14:13.852Z,49.69
2017-04-27T11:15:14.105Z,49.66
2017-04-27T11:16:13.499Z,49.57
2017-04-27T11:17:12.761Z,49.55
2017-04-27T11:18:12.909Z,49.50
2017-04-27T11:19:13.739Z,49.48
2017-04-27T11:20:13.839Z,49.42
2017-04-27T11:21:12.827Z,49.33
2017-04-27T11:22:12.922Z,49.33
2017-04-27T11:23:13.614Z,49.33
2017-04-27T11:24:14.402Z,49.29
2017-04-27T11:25:10.102Z,49.35
2017-04-27T11:26:12.408Z,49.33
2017-04-27T11:27:13.781Z,49.29
2017-04-27T11:28:15.057Z,49.30
2017-04-27T11:29:14.435Z,49.26
2017-04-27T11:30:13.141Z,49.18
2017-04-27T11:31:12.400Z,48.45
2017-04-27T11:32:12.491Z,48.27
2017-04-27T11:33:12.580Z,48.09
2017-04-27T11:34:12.605Z,48.19
2017-04-27T11:35:13.518Z,48.18
2017-04-27T11:36:13.726Z,48.19
2017-04-27T11:37:13.702Z,48.92
2017-04-27T11:38:13.646Z,48.95
2017-04-27T11:39:11.469Z,49.14
2017-04-27T11:40:12.638Z,49.16
2017-04-27T11:41:13.536Z,49.22
2017-04-27T11:42:09.903Z,49.20
2017-04-27T11:43:15.109Z,49.27
2017-04-27T11:44:14.137Z,49.22
2017-04-27T11:45:12.990Z,49.26
2017-04-27T11:46:12.537Z,49.26
2017-04-27T11:47:13.234Z,49.34
2017-04-27T11:48:13.828Z,49.32
2017-04-27T11:49:16.383Z,49.40
2017-04-27T11:50:15.083Z,49.42
2017-04-27T11:51:15.383Z,49.42
2017-04-27T11:52:13.552Z,49.43
2017-04-27T11:53:13.177Z,49.43
2017-04-27T11:54:13.423Z,49.35
2017-04-27T11:55:12.686Z,49.42
2017-04-27T11:56:11.043Z,49.44
2017-04-27T11:57:14.630Z,49.47
2017-04-27T11:58:12.784Z,49.46
2017-04-27T11:59:13.978Z,49.53
2017-04-27T12:00:13.158Z,49.54
2017-04-27T12:01:12.972Z,49.55
2017-04-27T12:02:12.814Z,49.89
2017-04-27T12:03:11.514Z,49.86
2017-04-27T12:04:14.321Z,49.85
2017-04-27T12:05:13.698Z,49.75
2017-04-27T12:06:14.053Z,49.55
2017-04-27T12:07:12.826Z,49.31
2017-04-27T12:08:13.003Z,49.57
2017-04-27T12:09:13.116Z,49.59
2017-04-27T12:10:12.435Z,48.98
2017-04-27T12:11:13.760Z,48.82
2017-04-27T12:12:13.316Z,48.80
2017-04-27T12:13:13.396Z,48.79
2017-04-27T12:14:13.108Z,48.78
2017-04-27T12:15:13.440Z,48.70
2017-04-27T12:16:12.564Z,48.73
2017-04-27T12:17:13.851Z,48.78
2017-04-27T12:18:13.964Z,48.72
2017-04-27T12:19:14.238Z,48.84
2017-04-27T12:20:12.351Z,49.51
2017-04-27T12:21:13.693Z,49.69
2017-04-27T12:22:12.849Z,49.76
2017-04-27T12:23:11.730Z,49.81
2017-04-27T12:24:13.994Z,49.83
2017-04-27T12:25:12.779Z,49.86
2017-04-27T12:26:15.058Z,49.89
2017-04-27T12:27:13.001Z,50.00
2017-04-27T12:28:12.265Z,50.01
2017-04-27T12:29:12.436Z,50.01
2017-04-27T12:30:13.093Z,50.06
2017-04-27T12:31:13.109Z,50.08
2017-04-27T12:32:12.953Z,50.08
2017-04-27T12:33:15.018Z,50.12
2017-04-27T12:34:11.951Z,50.09
2017-04-27T12:35:13.060Z,50.09
2017-04-27T12:36:12.015Z,50.07
2017-04-27T12:37:11.047Z,50.07
2017-04-27T12:38:13.472Z,50.10
2017-04-27T12:39:13.426Z,50.09
2017-04-27T12:40:13.462Z,50.06
2017-04-27T12:41:13.079Z,50.02
2017-04-27T12:42:12.850Z,50.05
2017-04-27T12:43:13.545Z,50.04
2017-04-27T12:44:14.369Z,50.01
2017-04-27T12:45:13.319Z,49.49
2017-04-27T12:46:10.492Z,49.88
2017-04-27T12:47:12.414Z,49.96
2017-04-27T12:48:12.799Z,49.99
2017-04-27T12:49:13.986Z,49.97
2017-04-27T12:50:11.388Z,50.00
2017-04-27T12:51:13.120Z,50.01
2017-04-27T12:52:13.742Z,49.99